createdAt,value
2023-02-06T00:01:50.000Z,40.83
2023-02-06T00:06:52.324Z,50.37
2023-02-06T00:11:54.693Z,44.80
2023-02-06T00:16:57.029Z,39.40
2023-02-06T00:21:59.553Z,41.83
2023-02-06T00:27:02.302Z,42.70
2023-02-06T00:32:05.799Z,45.20
2023-02-06T00:37:08.753Z,40.30
2023-02-06T00:42:12.521Z,42.27
2023-02-06T00:47:14.903Z,40.37
2023-02-06T00:52:17.306Z,39.47
2023-02-06T00:57:21.145Z,42.00
2023-02-06T01:02:23.517Z,67.80
2023-02-06T01:07:25.969Z,49.13
2023-02-06T01:12:28.264Z,47.47
2023-02-06T01:17:32.790Z,45.33
2023-02-06T01:22:36.621Z,45.77
2023-02-06T01:27:38.977Z,43.93
2023-02-06T01:32:42.366Z,46.33
2023-02-06T01:37:44.684Z,53.28
2023-02-06T01:42:46.984Z,114.87
2023-02-06T01:47:51.500Z,54.20
2023-02-06T01:52:55.657Z,52.13
2023-02-06T01:58:00.871Z,74.33
2023-02-06T02:03:04.896Z,64.80
2023-02-06T02:08:22.514Z,58.77
2023-02-06T02:13:25.652Z,50.33
2023-02-06T02:18:38.622Z,58.47
2023-02-06T02:24:00.108Z,51.13
2023-02-06T02:29:38.960Z,54.47
2023-02-06T02:35:03.156Z,52.53
2023-02-06T02:40:24.259Z,53.40
2023-02-06T02:45:42.541Z,55.27
2023-02-06T02:50:45.146Z,61.67
2023-02-06T02:55:48.598Z,65.83
2023-02-06T03:01:01.557Z,75.97
2023-02-06T03:06:31.842Z,67.90
2023-02-06T03:11:41.571Z,68.37
2023-02-06T03:16:50.508Z,61.70
2023-02-06T03:21:52.858Z,66.03
2023-02-06T03:27:02.101Z,62.67
2023-02-06T03:32:18.547Z,60.40
2023-02-06T03:37:21.754Z,57.63
2023-02-06T03:42:25.584Z,58.20
2023-02-06T03:47:30.145Z,57.90
2023-02-06T03:52:38.446Z,51.83
2023-02-06T03:57:43.065Z,45.23
2023-02-06T04:02:49.662Z,77.75
2023-02-06T04:07:53.946Z,45.27
2023-02-06T04:12:56.420Z,59.43
2023-02-06T04:18:01.058Z,50.20
2023-02-06T04:23:03.730Z,47.13
2023-02-06T04:28:06.784Z,44.00
2023-02-06T04:33:09.168Z,38.53
2023-02-06T04:38:11.464Z,34.33
2023-02-06T04:43:13.796Z,31.40
2023-02-06T04:48:16.062Z,39.20
2023-02-06T04:53:19.325Z,32.30
2023-02-06T04:58:21.879Z,37.00
2023-02-06T05:03:25.308Z,32.50
2023-02-06T05:08:27.810Z,32.70
2023-02-06T05:13:30.341Z,28.77
2023-02-06T05:18:32.653Z,30.57
2023-02-06T05:23:34.992Z,27.50
2023-02-06T05:28:37.594Z,30.93
2023-02-06T05:33:40.009Z,26.47
2023-02-06T05:38:42.400Z,24.80
2023-02-06T05:43:45.349Z,27.17
2023-02-06T05:48:47.670Z,23.37
2023-02-06T05:53:50.028Z,26.93
2023-02-06T05:58:52.410Z,26.30
2023-02-06T06:03:55.199Z,28.47
2023-02-06T06:09:03.529Z,25.23
2023-02-06T06:14:06.211Z,26.67
2023-02-06T06:19:09.281Z,25.03
2023-02-06T06:24:14.056Z,29.53
2023-02-06T06:29:19.075Z,28.97
2023-02-06T06:34:22.210Z,30.27
2023-02-06T06:39:24.901Z,28.53
2023-02-06T06:44:27.219Z,30.47
2023-02-06T06:49:29.491Z,33.83
2023-02-06T06:54:31.706Z,35.43
2023-02-06T06:59:33.925Z,36.10
2023-02-06T07:04:36.193Z,44.00
2023-02-06T07:09:38.443Z,41.83
2023-02-06T07:14:40.711Z,39.17
2023-02-06T07:19:47.992Z,38.03
2023-02-06T07:24:51.626Z,36.57
2023-02-06T07:29:55.572Z,33.73
2023-02-06T07:34:58.339Z,34.60
2023-02-06T07:40:00.744Z,39.27
2023-02-06T07:45:03.218Z,40.77
2023-02-06T07:50:05.913Z,45.40
2023-02-06T07:55:10.225Z,45.70
2023-02-06T08:00:13.423Z,34.70
2023-02-06T08:05:15.905Z,48.60
2023-02-06T08:10:18.480Z,33.30
2023-02-06T08:15:20.816Z,28.97
2023-02-06T08:20:23.472Z,25.90
2023-02-06T08:25:26.421Z,38.33
2023-02-06T08:30:29.358Z,35.20
2023-02-06T08:35:31.766Z,30.37
2023-02-06T08:40:34.288Z,25.30
2023-02-06T08:45:36.743Z,27.97
2023-02-06T08:50:39.602Z,23.97
2023-02-06T08:55:42.206Z,42.33
2023-02-06T09:00:44.576Z,39.83
2023-02-06T09:05:47.434Z,24.17
2023-02-06T09:10:49.744Z,23.83
2023-02-06T09:15:53.315Z,23.83
2023-02-06T09:21:12.202Z,23.17
2023-02-06T09:26:17.891Z,25.87
2023-02-06T09:31:21.622Z,28.13
2023-02-06T09:36:24.527Z,28.73
2023-02-06T09:41:27.023Z,44.23
2023-02-06T09:46:37.088Z,57.53
2023-02-06T09:51:56.759Z,26.13
2023-02-06T09:57:13.888Z,71.00
2023-02-06T10:02:25.951Z,24.27
2023-02-06T10:08:13.243Z,18.10
2023-02-06T10:13:27.628Z,14.27
2023-02-06T10:19:10.078Z,16.10
2023-02-06T10:24:26.061Z,20.17
2023-02-06T10:29:31.257Z,12.63
2023-02-06T10:34:52.212Z,12.00
2023-02-06T10:40:33.721Z,11.63
2023-02-06T10:45:43.798Z,13.30
2023-02-06T10:50:53.369Z,10.23
2023-02-06T10:56:00.694Z,10.00
2023-02-06T11:01:20.090Z,11.23
2023-02-06T11:06:30.678Z,9.30
2023-02-06T11:17:15.298Z,10.47
2023-02-06T11:22:27.973Z,60.77
2023-02-06T11:27:33.425Z,10.30
2023-02-06T11:33:29.756Z,8.27
2023-02-06T11:38:55.116Z,14.93
2023-02-06T11:44:24.097Z,7.57
2023-02-06T11:50:05.237Z,10.07
2023-02-06T11:55:28.483Z,10.37
2023-02-06T12:00:35.965Z,8.57
2023-02-06T12:05:42.562Z,10.40
2023-02-06T12:11:00.920Z,10.83
2023-02-06T12:16:05.631Z,10.00
2023-02-06T12:21:24.625Z,18.80
2023-02-06T12:26:33.649Z,47.43
2023-02-06T12:31:57.345Z,26.70
2023-02-06T12:37:14.032Z,7.13
2023-02-06T12:42:36.666Z,11.77
2023-02-06T12:48:06.968Z,37.40
2023-02-06T12:53:20.307Z,14.70
2023-02-06T12:58:31.775Z,7.57
2023-02-06T13:03:49.313Z,49.47
2023-02-06T13:09:25.250Z,5.43
2023-02-06T13:14:29.737Z,7.53
2023-02-06T13:20:09.140Z,5.53
2023-02-06T13:25:29.308Z,11.00
2023-02-06T13:30:31.807Z,6.43
2023-02-06T13:35:56.326Z,5.97
2023-02-06T13:41:17.060Z,13.70
2023-02-06T13:46:23.586Z,6.70
2023-02-06T13:52:03.480Z,7.63
2023-02-06T13:57:37.474Z,6.80
2023-02-06T14:02:49.696Z,8.70
2023-02-06T14:08:13.536Z,7.57
2023-02-06T14:13:41.441Z,7.80
2023-02-06T14:18:57.960Z,7.17
2023-02-06T14:24:11.600Z,6.97
2023-02-06T14:29:38.082Z,9.40
2023-02-06T14:35:24.030Z,11.83
2023-02-06T14:40:29.371Z,6.57
2023-02-06T14:45:40.924Z,19.63
2023-02-06T14:50:49.219Z,56.10
2023-02-06T14:55:51.958Z,22.33
2023-02-06T15:00:57.444Z,16.20
2023-02-06T15:06:05.761Z,27.90
2023-02-06T15:11:20.067Z,14.07
2023-02-06T15:16:22.667Z,112.07
2023-02-06T15:21:24.992Z,59.50
2023-02-06T15:26:45.187Z,51.87
2023-02-06T15:31:53.824Z,39.53
2023-02-06T15:36:56.302Z,29.33
2023-02-06T15:41:58.629Z,25.40
2023-02-06T15:47:04.527Z,36.10
2023-02-06T15:52:07.440Z,39.20
2023-02-06T15:57:35.527Z,29.33
2023-02-06T16:02:40.454Z,25.03
2023-02-06T16:07:47.433Z,35.30
2023-02-06T16:12:50.812Z,55.73
2023-02-06T16:17:53.689Z,35.53
2023-02-06T16:23:18.408Z,28.23
2023-02-06T16:28:23.114Z,111.70
2023-02-06T16:33:31.312Z,40.17
2023-02-06T16:38:33.695Z,43.73
2023-02-06T16:43:35.998Z,32.63
2023-02-06T16:48:38.252Z,29.67
2023-02-06T16:53:40.488Z,61.07
2023-02-06T16:58:43.391Z,53.57
2023-02-06T17:03:45.645Z,39.30
2023-02-06T17:08:48.549Z,39.30
2023-02-06T17:13:50.851Z,109.27
2023-02-06T17:18:54.043Z,82.50
2023-02-06T17:23:56.407Z,106.07
2023-02-06T17:28:58.734Z,85.83
2023-02-06T17:34:00.968Z,65.00
2023-02-06T17:39:03.216Z,84.50
2023-02-06T17:44:05.495Z,56.90
2023-02-06T17:49:07.796Z,48.20
2023-02-06T17:54:11.055Z,48.83
2023-02-06T17:59:13.299Z,37.00
2023-02-06T18:04:19.578Z,55.17
2023-02-06T18:09:21.841Z,50.27
2023-02-06T18:14:24.249Z,49.37
2023-02-06T18:19:26.510Z,48.97
2023-02-06T18:24:28.757Z,47.17
2023-02-06T18:29:43.629Z,48.37
2023-02-06T18:34:51.016Z,47.30
2023-02-06T18:39:55.113Z,41.97
2023-02-06T18:44:57.423Z,48.23
2023-02-06T18:49:59.809Z,46.37
2023-02-06T18:55:02.413Z,55.70
2023-02-06T19:00:05.963Z,99.77
2023-02-06T19:05:08.691Z,57.60
2023-02-06T19:10:12.957Z,44.43
2023-02-06T19:15:15.742Z,37.53
2023-02-06T19:20:19.382Z,32.57
2023-02-06T19:25:21.642Z,38.43
2023-02-06T19:30:23.873Z,62.37
2023-02-06T19:35:26.161Z,51.27
2023-02-06T19:40:28.422Z,41.33
2023-02-06T19:45:30.657Z,38.73
2023-02-06T19:50:35.181Z,32.57
2023-02-06T19:55:37.906Z,37.90
2023-02-06T20:00:40.203Z,32.53
2023-02-06T20:05:43.694Z,35.80
2023-02-06T20:10:46.019Z,31.40
2023-02-06T20:15:48.565Z,32.80
2023-02-06T20:20:50.867Z,35.77
2023-02-06T20:25:54.850Z,40.60
2023-02-06T20:30:57.341Z,38.17
2023-02-06T20:36:05.561Z,42.20
2023-02-06T20:41:08.583Z,40.60
2023-02-06T20:46:11.247Z,39.13
2023-02-06T20:51:14.468Z,30.80
2023-02-06T20:56:17.588Z,33.07
2023-02-06T21:01:25.439Z,44.10
2023-02-06T21:06:29.294Z,36.47
2023-02-06T21:11:37.148Z,81.10
2023-02-06T21:16:39.862Z,49.30
2023-02-06T21:21:45.565Z,35.97
2023-02-06T21:26:48.398Z,48.27
2023-02-06T21:31:55.688Z,45.03
2023-02-06T21:37:05.637Z,37.10
2023-02-06T21:42:09.431Z,30.27
2023-02-06T21:47:11.680Z,33.10
2023-02-06T21:52:13.987Z,32.93
2023-02-06T21:57:16.356Z,46.40
2023-02-06T22:02:19.263Z,34.37
2023-02-06T22:07:21.556Z,33.50
2023-02-06T22:12:24.003Z,36.73
2023-02-06T22:17:27.912Z,37.80
2023-02-06T22:22:30.179Z,46.37
2023-02-06T22:27:33.769Z,41.30
2023-02-06T22:32:37.828Z,37.07
2023-02-06T22:37:40.180Z,41.90
2023-02-06T22:42:43.740Z,42.07
2023-02-06T22:47:46.069Z,41.47
2023-02-06T22:53:07.167Z,36.60
2023-02-06T22:58:09.464Z,38.37
2023-02-06T23:03:11.708Z,36.50
2023-02-06T23:08:13.978Z,38.50
2023-02-06T23:13:16.255Z,39.57
2023-02-06T23:18:18.635Z,39.40
2023-02-06T23:23:21.209Z,60.83
2023-02-06T23:28:25.141Z,52.00
2023-02-06T23:33:27.440Z,47.93
2023-02-06T23:38:29.653Z,41.17
2023-02-06T23:43:32.154Z,42.23
2023-02-06T23:48:35.213Z,42.13
2023-02-06T23:53:37.755Z,45.50
2023-02-06T23:58:40.405Z,43.20
